KEFD/EFD METAR and TAF weather

Enter ICAO airport designator
Station Type Date Time Source
KEFD METAR 2019/07/18 10:50 UTC NOAA

KEFD 181050Z 14004KT 10SM FEW020 26/24 A3002


Station Type Date Time Source
KEFD Decoded METAR 2019/07/18 10:50 UTC NOAA

Houston / Ellington, TX, United States (KEFD) 29-36N 095-10W
Jul 18, 2019 - 06:50 AM EDT / 2019.07.18 1050 UTC
Wind: from the SE (140 degrees) at 5 MPH (4 KT):0
Visibility: 10 mile(s):0
Sky conditions: mostly clear
Temperature: 78 F (26 C)
Dew Point: 75 F (24 C)
Relative Humidity: 88%
Pressure (altimeter): 30.02 in. Hg (1016 hPa)
ob: KEFD 181050Z 14004KT 10SM FEW020 26/24 A3002
cycle: 11

Station Type Date Time Source
KEFD TAF 2019/07/18 04:04 UTC NOAA

TAF KEFD 180400Z 1804/1910 18008KT 9999 FEW015 BKN020 QNH2997INS
BECMG 1815/1816 20010G15KT 9999 FEW050 FEW250 QNH2996INS
BECMG 1823/1824 19008KT 9999 FEW015 SCT030 SCT250 QNH2994INS TX34/1822Z TN25/1810Z

Example: see airport list